Overview Statistics Trail Chart Weather Telemetry Raw packets
 

This is the latest recevied weather packets stored in our database for station/object SP3ZBZ-13. If no packets are shown the sender has not sent any weather packets the latest 10 day(s).

<< 16 17 18 19 20 21 22 >>
Time Temp. Humidity Pressure Rain* Wind** Luminosity Snow
1788222845 17.22° C 74% 1007.8 hPa - - - -
1788221944 17.22° C 74% 1007.7 hPa - - - -
1788221043 16.67° C 76% 1007.8 hPa - - - -
1788220142 16.67° C 84% 1007.7 hPa - - - -
1788219242 16.67° C 84% 1007.7 hPa - - - -
1788218340 16.11° C 83% 1007.7 hPa - - - -
1788217439 16.67° C 83% 1007.6 hPa - - - -
1788216539 17.22° C 80% 1007.5 hPa - - - -
1788215637 17.78° C 79% 1007.7 hPa - - - -
1788214737 17.78° C 79% 1007.8 hPa - - - -
1788213835 17.78° C 80% 1007.6 hPa - - - -
1788212934 17.78° C 78% 1007.4 hPa - - - -
1788212033 18.33° C 76% 1007.7 hPa - - - -
1788211132 19.44° C 72% 1007.7 hPa - - - -
1788210231 18.89° C 78% 1007.2 hPa - - - -
1788209330 18.33° C 78% 1007.2 hPa - - - -
1788208428 18.89° C 78% 1007.2 hPa - - - -
1788207528 18.33° C 79% 1007.1 hPa - - - -
1788206626 18.89° C 78% 1007 hPa - - - -
1788205726 18.89° C 78% 1007 hPa - - - -
1788204825 18.89° C 77% 1007 hPa - - - -
1788203923 18.89° C 77% 1007 hPa - - - -
1788203022 18.89° C 77% 1007 hPa - - - -
1788202121 18.89° C 77% 1006.9 hPa - - - -
1788201220 18.89° C 77% 1006.9 hPa - - - -

* Rain since midnight (hover to see other rain measurements)
** Current wind speed in m/s (hover to see current wind gust speed)